sensor_id;sensor_type;location;lat;lon;timestamp;P1;durP1;ratioP1;P2;durP2;ratioP2
53421;SDS011;39319;52.944;5.928;2022-11-03T00:01:32;17.13;;;3.77;;
53421;SDS011;39319;52.944;5.928;2022-11-03T00:04:00;21.98;;;4.07;;
53421;SDS011;39319;52.944;5.928;2022-11-03T00:06:25;19.45;;;4.13;;
53421;SDS011;39319;52.944;5.928;2022-11-03T00:08:51;19.53;;;4.43;;
53421;SDS011;39319;52.944;5.928;2022-11-03T00:11:17;18.83;;;4.00;;
53421;SDS011;39319;52.944;5.928;2022-11-03T00:13:43;17.38;;;3.75;;
53421;SDS011;39319;52.944;5.928;2022-11-03T00:16:10;17.70;;;4.07;;
53421;SDS011;39319;52.944;5.928;2022-11-03T00:18:36;17.23;;;4.00;;
53421;SDS011;39319;52.944;5.928;2022-11-03T00:21:03;14.70;;;3.80;;
53421;SDS011;39319;52.944;5.928;2022-11-03T00:23:32;19.77;;;4.05;;
53421;SDS011;39319;52.944;5.928;2022-11-03T00:28:36;19.20;;;4.10;;
53421;SDS011;39319;52.944;5.928;2022-11-03T00:31:07;21.35;;;4.90;;
53421;SDS011;39319;52.944;5.928;2022-11-03T00:33:37;20.17;;;4.60;;
53421;SDS011;39319;52.944;5.928;2022-11-03T00:36:04;19.42;;;4.30;;
53421;SDS011;39319;52.944;5.928;2022-11-03T00:38:31;18.15;;;3.95;;
53421;SDS011;39319;52.944;5.928;2022-11-03T00:41:01;20.42;;;4.20;;
53421;SDS011;39319;52.944;5.928;2022-11-03T00:43:28;17.10;;;4.07;;
53421;SDS011;39319;52.944;5.928;2022-11-03T00:45:55;20.07;;;4.10;;
53421;SDS011;39319;52.944;5.928;2022-11-03T00:48:24;20.20;;;4.70;;
53421;SDS011;39319;52.944;5.928;2022-11-03T00:51:19;19.02;;;4.60;;
53421;SDS011;39319;52.944;5.928;2022-11-03T00:53:47;18.75;;;4.20;;
53421;SDS011;39319;52.944;5.928;2022-11-03T00:56:19;20.33;;;4.30;;
53421;SDS011;39319;52.944;5.928;2022-11-03T00:58:47;17.42;;;4.15;;
53421;SDS011;39319;52.944;5.928;2022-11-03T01:01:18;19.98;;;4.38;;
53421;SDS011;39319;52.944;5.928;2022-11-03T01:03:53;22.05;;;5.18;;
53421;SDS011;39319;52.944;5.928;2022-11-03T01:06:40;16.42;;;3.63;;
53421;SDS011;39319;52.944;5.928;2022-11-03T01:09:26;14.98;;;3.88;;
53421;SDS011;39319;52.944;5.928;2022-11-03T01:12:02;17.23;;;3.58;;
53421;SDS011;39319;52.944;5.928;2022-11-03T01:14:32;15.65;;;3.60;;
53421;SDS011;39319;52.944;5.928;2022-11-03T01:17:01;16.40;;;3.93;;
53421;SDS011;39319;52.944;5.928;2022-11-03T01:19:33;18.77;;;3.85;;
53421;SDS011;39319;52.944;5.928;2022-11-03T01:21:58;17.57;;;4.13;;
53421;SDS011;39319;52.944;5.928;2022-11-03T01:24:24;18.35;;;3.90;;
53421;SDS011;39319;52.944;5.928;2022-11-03T01:26:50;18.60;;;3.70;;
53421;SDS011;39319;52.944;5.928;2022-11-03T01:29:15;15.57;;;3.65;;
53421;SDS011;39319;52.944;5.928;2022-11-03T01:31:41;18.67;;;4.73;;
53421;SDS011;39319;52.944;5.928;2022-11-03T01:34:08;20.00;;;3.92;;
53421;SDS011;39319;52.944;5.928;2022-11-03T01:36:40;18.02;;;4.28;;
53421;SDS011;39319;52.944;5.928;2022-11-03T01:39:09;17.75;;;3.97;;
53421;SDS011;39319;52.944;5.928;2022-11-03T01:41:36;16.80;;;3.80;;
53421;SDS011;39319;52.944;5.928;2022-11-03T01:46:56;19.50;;;4.13;;
53421;SDS011;39319;52.944;5.928;2022-11-03T01:52:23;16.33;;;3.93;;
53421;SDS011;39319;52.944;5.928;2022-11-03T01:55:12;17.17;;;4.07;;
53421;SDS011;39319;52.944;5.928;2022-11-03T01:57:42;18.02;;;3.88;;
53421;SDS011;39319;52.944;5.928;2022-11-03T02:00:10;16.27;;;3.90;;
53421;SDS011;39319;52.944;5.928;2022-11-03T02:02:37;17.45;;;4.47;;
53421;SDS011;39319;52.944;5.928;2022-11-03T02:05:02;20.92;;;4.50;;
53421;SDS011;39319;52.944;5.928;2022-11-03T02:07:32;18.15;;;3.72;;
53421;SDS011;39319;52.944;5.928;2022-11-03T02:10:03;16.63;;;3.92;;
53421;SDS011;39319;52.944;5.928;2022-11-03T02:12:29;16.55;;;4.00;;
53421;SDS011;39319;52.944;5.928;2022-11-03T02:14:58;14.07;;;3.75;;
53421;SDS011;39319;52.944;5.928;2022-11-03T02:17:45;17.38;;;3.67;;
53421;SDS011;39319;52.944;5.928;2022-11-03T02:20:20;16.50;;;3.90;;
53421;SDS011;39319;52.944;5.928;2022-11-03T02:26:00;17.08;;;3.97;;
53421;SDS011;39319;52.944;5.928;2022-11-03T02:28:30;16.45;;;3.70;;
53421;SDS011;39319;52.944;5.928;2022-11-03T02:31:16;18.35;;;4.10;;
53421;SDS011;39319;52.944;5.928;2022-11-03T02:33:56;17.50;;;3.87;;
53421;SDS011;39319;52.944;5.928;2022-11-03T02:36:48;16.85;;;3.72;;
53421;SDS011;39319;52.944;5.928;2022-11-03T02:39:24;15.50;;;4.00;;
53421;SDS011;39319;52.944;5.928;2022-11-03T02:42:10;19.65;;;4.60;;
53421;SDS011;39319;52.944;5.928;2022-11-03T02:44:37;16.13;;;3.83;;
53421;SDS011;39319;52.944;5.928;2022-11-03T02:47:05;17.17;;;3.92;;
53421;SDS011;39319;52.944;5.928;2022-11-03T02:49:47;15.77;;;3.80;;
53421;SDS011;39319;52.944;5.928;2022-11-03T02:52:33;19.00;;;4.03;;
53421;SDS011;39319;52.944;5.928;2022-11-03T02:55:38;18.58;;;4.05;;
53421;SDS011;39319;52.944;5.928;2022-11-03T02:57:57;15.82;;;4.10;;
53421;SDS011;39319;52.944;5.928;2022-11-03T03:00:44;16.40;;;4.13;;
53421;SDS011;39319;52.944;5.928;2022-11-03T03:06:04;17.58;;;4.28;;
53421;SDS011;39319;52.944;5.928;2022-11-03T03:08:37;16.65;;;3.97;;
53421;SDS011;39319;52.944;5.928;2022-11-03T03:11:09;18.05;;;4.55;;
53421;SDS011;39319;52.944;5.928;2022-11-03T03:13:38;16.60;;;3.72;;
53421;SDS011;39319;52.944;5.928;2022-11-03T03:16:12;17.70;;;4.43;;
53421;SDS011;39319;52.944;5.928;2022-11-03T03:18:50;13.77;;;3.75;;
53421;SDS011;39319;52.944;5.928;2022-11-03T03:21:23;18.92;;;4.28;;
53421;SDS011;39319;52.944;5.928;2022-11-03T03:24:00;17.65;;;3.47;;
53421;SDS011;39319;52.944;5.928;2022-11-03T03:26:32;20.73;;;4.60;;
53421;SDS011;39319;52.944;5.928;2022-11-03T03:29:02;20.02;;;4.32;;
53421;SDS011;39319;52.944;5.928;2022-11-03T03:31:35;17.50;;;4.20;;
53421;SDS011;39319;52.944;5.928;2022-11-03T03:34:04;20.02;;;4.13;;
53421;SDS011;39319;52.944;5.928;2022-11-03T03:36:31;22.50;;;4.60;;
53421;SDS011;39319;52.944;5.928;2022-11-03T03:38:59;18.67;;;4.35;;
53421;SDS011;39319;52.944;5.928;2022-11-03T03:41:29;16.58;;;4.32;;
53421;SDS011;39319;52.944;5.928;2022-11-03T03:43:58;15.98;;;3.80;;
53421;SDS011;39319;52.944;5.928;2022-11-03T03:46:34;20.33;;;4.30;;
53421;SDS011;39319;52.944;5.928;2022-11-03T03:49:03;17.65;;;4.38;;
53421;SDS011;39319;52.944;5.928;2022-11-03T03:51:30;16.87;;;3.87;;
53421;SDS011;39319;52.944;5.928;2022-11-03T03:53:57;15.25;;;3.72;;
53421;SDS011;39319;52.944;5.928;2022-11-03T03:56:27;18.25;;;4.15;;
53421;SDS011;39319;52.944;5.928;2022-11-03T03:58:57;14.77;;;3.72;;
53421;SDS011;39319;52.944;5.928;2022-11-03T04:01:32;15.38;;;3.78;;
53421;SDS011;39319;52.944;5.928;2022-11-03T04:03:58;18.35;;;4.00;;
53421;SDS011;39319;52.944;5.928;2022-11-03T04:06:24;16.20;;;4.27;;
53421;SDS011;39319;52.944;5.928;2022-11-03T04:08:50;22.67;;;4.55;;
53421;SDS011;39319;52.944;5.928;2022-11-03T04:11:16;15.70;;;3.50;;
53421;SDS011;39319;52.944;5.928;2022-11-03T04:14:01;18.42;;;4.13;;
53421;SDS011;39319;52.944;5.928;2022-11-03T04:16:45;16.85;;;3.78;;
53421;SDS011;39319;52.944;5.928;2022-11-03T04:19:29;17.93;;;3.80;;
53421;SDS011;39319;52.944;5.928;2022-11-03T04:22:14;16.75;;;4.00;;
53421;SDS011;39319;52.944;5.928;2022-11-03T04:24:46;17.60;;;4.15;;
53421;SDS011;39319;52.944;5.928;2022-11-03T04:27:32;20.40;;;4.25;;
53421;SDS011;39319;52.944;5.928;2022-11-03T04:32:34;17.10;;;3.85;;
53421;SDS011;39319;52.944;5.928;2022-11-03T04:35:00;19.85;;;4.57;;
53421;SDS011;39319;52.944;5.928;2022-11-03T04:37:31;17.90;;;4.10;;
53421;SDS011;39319;52.944;5.928;2022-11-03T04:40:00;16.87;;;4.20;;
53421;SDS011;39319;52.944;5.928;2022-11-03T04:42:25;18.08;;;4.25;;
53421;SDS011;39319;52.944;5.928;2022-11-03T04:44:54;16.20;;;4.27;;
53421;SDS011;39319;52.944;5.928;2022-11-03T04:47:24;17.30;;;4.30;;
53421;SDS011;39319;52.944;5.928;2022-11-03T04:49:50;19.47;;;4.30;;
53421;SDS011;39319;52.944;5.928;2022-11-03T04:52:18;20.70;;;4.47;;
53421;SDS011;39319;52.944;5.928;2022-11-03T04:54:47;18.75;;;4.07;;
53421;SDS011;39319;52.944;5.928;2022-11-03T04:57:15;17.85;;;4.07;;
53421;SDS011;39319;52.944;5.928;2022-11-03T04:59:42;17.70;;;3.88;;
53421;SDS011;39319;52.944;5.928;2022-11-03T05:02:13;16.05;;;3.58;;
53421;SDS011;39319;52.944;5.928;2022-11-03T05:04:41;17.92;;;4.18;;
53421;SDS011;39319;52.944;5.928;2022-11-03T05:09:42;16.92;;;4.28;;
53421;SDS011;39319;52.944;5.928;2022-11-03T05:12:08;19.25;;;4.20;;
53421;SDS011;39319;52.944;5.928;2022-11-03T05:14:34;17.17;;;4.25;;
53421;SDS011;39319;52.944;5.928;2022-11-03T05:17:01;16.60;;;4.07;;
53421;SDS011;39319;52.944;5.928;2022-11-03T05:19:40;18.23;;;4.00;;
53421;SDS011;39319;52.944;5.928;2022-11-03T05:22:11;18.73;;;4.05;;
53421;SDS011;39319;52.944;5.928;2022-11-03T05:24:43;17.70;;;3.80;;
53421;SDS011;39319;52.944;5.928;2022-11-03T05:27:11;17.52;;;3.85;;
53421;SDS011;39319;52.944;5.928;2022-11-03T05:29:42;16.48;;;4.05;;
53421;SDS011;39319;52.944;5.928;2022-11-03T05:32:13;18.92;;;4.65;;
53421;SDS011;39319;52.944;5.928;2022-11-03T05:34:45;18.38;;;4.50;;
53421;SDS011;39319;52.944;5.928;2022-11-03T05:37:22;17.17;;;4.43;;
53421;SDS011;39319;52.944;5.928;2022-11-03T05:39:50;15.85;;;4.03;;
53421;SDS011;39319;52.944;5.928;2022-11-03T05:44:49;18.10;;;4.27;;
53421;SDS011;39319;52.944;5.928;2022-11-03T05:47:37;17.17;;;3.88;;
53421;SDS011;39319;52.944;5.928;2022-11-03T05:50:22;15.23;;;4.10;;
53421;SDS011;39319;52.944;5.928;2022-11-03T05:52:54;16.13;;;4.25;;
53421;SDS011;39319;52.944;5.928;2022-11-03T05:55:24;19.63;;;4.40;;
53421;SDS011;39319;52.944;5.928;2022-11-03T05:57:58;17.43;;;4.00;;
53421;SDS011;39319;52.944;5.928;2022-11-03T06:00:30;17.30;;;4.20;;
53421;SDS011;39319;52.944;5.928;2022-11-03T06:03:01;16.45;;;4.07;;
53421;SDS011;39319;52.944;5.928;2022-11-03T06:05:29;17.42;;;4.40;;
53421;SDS011;39319;52.944;5.928;2022-11-03T06:07:56;16.67;;;4.22;;
53421;SDS011;39319;52.944;5.928;2022-11-03T06:10:26;18.92;;;4.30;;
53421;SDS011;39319;52.944;5.928;2022-11-03T06:13:10;18.38;;;3.92;;
53421;SDS011;39319;52.944;5.928;2022-11-03T06:15:40;19.05;;;4.35;;
53421;SDS011;39319;52.944;5.928;2022-11-03T06:20:43;16.38;;;4.03;;
53421;SDS011;39319;52.944;5.928;2022-11-03T06:23:17;15.02;;;3.88;;
53421;SDS011;39319;52.944;5.928;2022-11-03T06:25:44;13.18;;;3.58;;
53421;SDS011;39319;52.944;5.928;2022-11-03T06:28:13;17.10;;;3.80;;
53421;SDS011;39319;52.944;5.928;2022-11-03T06:30:44;17.67;;;4.18;;
53421;SDS011;39319;52.944;5.928;2022-11-03T06:36:00;18.08;;;3.72;;
53421;SDS011;39319;52.944;5.928;2022-11-03T06:38:30;20.10;;;4.63;;
53421;SDS011;39319;52.944;5.928;2022-11-03T06:40:59;15.03;;;3.80;;
53421;SDS011;39319;52.944;5.928;2022-11-03T06:43:25;17.83;;;4.22;;
53421;SDS011;39319;52.944;5.928;2022-11-03T06:46:11;16.52;;;4.13;;
53421;SDS011;39319;52.944;5.928;2022-11-03T06:48:48;19.23;;;4.35;;
53421;SDS011;39319;52.944;5.928;2022-11-03T06:51:25;18.85;;;4.65;;
53421;SDS011;39319;52.944;5.928;2022-11-03T06:53:53;19.10;;;4.63;;
53421;SDS011;39319;52.944;5.928;2022-11-03T06:56:22;15.07;;;4.20;;
53421;SDS011;39319;52.944;5.928;2022-11-03T06:58:53;17.60;;;4.18;;
53421;SDS011;39319;52.944;5.928;2022-11-03T07:01:22;17.98;;;4.55;;
53421;SDS011;39319;52.944;5.928;2022-11-03T07:03:51;14.15;;;3.90;;
53421;SDS011;39319;52.944;5.928;2022-11-03T07:06:22;17.00;;;4.05;;
53421;SDS011;39319;52.944;5.928;2022-11-03T07:08:57;17.98;;;3.85;;
53421;SDS011;39319;52.944;5.928;2022-11-03T07:11:39;16.42;;;3.90;;
53421;SDS011;39319;52.944;5.928;2022-11-03T07:14:21;16.70;;;3.92;;
53421;SDS011;39319;52.944;5.928;2022-11-03T07:16:56;14.00;;;3.83;;
53421;SDS011;39319;52.944;5.928;2022-11-03T07:19:28;19.30;;;4.30;;
53421;SDS011;39319;52.944;5.928;2022-11-03T07:21:58;18.10;;;4.30;;
53421;SDS011;39319;52.944;5.928;2022-11-03T07:27:12;14.52;;;4.10;;
53421;SDS011;39319;52.944;5.928;2022-11-03T07:29:48;19.60;;;4.43;;
53421;SDS011;39319;52.944;5.928;2022-11-03T07:32:19;17.10;;;4.22;;
53421;SDS011;39319;52.944;5.928;2022-11-03T07:34:46;15.05;;;4.03;;
53421;SDS011;39319;52.944;5.928;2022-11-03T07:37:17;16.77;;;4.10;;
53421;SDS011;39319;52.944;5.928;2022-11-03T07:39:45;13.32;;;3.70;;
53421;SDS011;39319;52.944;5.928;2022-11-03T07:42:16;18.48;;;4.10;;
53421;SDS011;39319;52.944;5.928;2022-11-03T07:44:44;16.05;;;3.75;;
53421;SDS011;39319;52.944;5.928;2022-11-03T07:47:11;16.17;;;3.63;;
53421;SDS011;39319;52.944;5.928;2022-11-03T07:49:38;15.85;;;3.83;;
53421;SDS011;39319;52.944;5.928;2022-11-03T07:52:07;15.43;;;4.00;;
53421;SDS011;39319;52.944;5.928;2022-11-03T07:54:36;16.35;;;3.75;;
53421;SDS011;39319;52.944;5.928;2022-11-03T07:59:38;17.08;;;4.03;;
53421;SDS011;39319;52.944;5.928;2022-11-03T08:04:54;17.27;;;3.90;;
53421;SDS011;39319;52.944;5.928;2022-11-03T08:07:20;15.82;;;3.72;;
53421;SDS011;39319;52.944;5.928;2022-11-03T08:09:46;17.73;;;4.47;;
53421;SDS011;39319;52.944;5.928;2022-11-03T08:12:12;15.13;;;3.90;;
53421;SDS011;39319;52.944;5.928;2022-11-03T08:14:37;15.10;;;3.85;;
53421;SDS011;39319;52.944;5.928;2022-11-03T08:17:03;15.43;;;4.03;;
53421;SDS011;39319;52.944;5.928;2022-11-03T08:19:29;17.77;;;4.20;;
53421;SDS011;39319;52.944;5.928;2022-11-03T08:21:55;17.67;;;4.13;;
53421;SDS011;39319;52.944;5.928;2022-11-03T08:24:21;18.42;;;4.45;;
53421;SDS011;39319;52.944;5.928;2022-11-03T08:26:47;13.15;;;3.30;;
53421;SDS011;39319;52.944;5.928;2022-11-03T08:29:12;15.37;;;4.17;;
53421;SDS011;39319;52.944;5.928;2022-11-03T08:31:38;14.30;;;3.78;;
53421;SDS011;39319;52.944;5.928;2022-11-03T08:34:04;16.08;;;3.90;;
53421;SDS011;39319;52.944;5.928;2022-11-03T08:36:31;21.58;;;4.15;;
53421;SDS011;39319;52.944;5.928;2022-11-03T08:38:56;17.17;;;4.17;;
53421;SDS011;39319;52.944;5.928;2022-11-03T08:41:22;15.88;;;4.10;;
53421;SDS011;39319;52.944;5.928;2022-11-03T08:43:48;16.90;;;4.00;;
53421;SDS011;39319;52.944;5.928;2022-11-03T08:46:14;21.77;;;4.30;;
53421;SDS011;39319;52.944;5.928;2022-11-03T08:48:39;15.20;;;3.67;;
53421;SDS011;39319;52.944;5.928;2022-11-03T08:51:06;12.10;;;3.50;;
53421;SDS011;39319;52.944;5.928;2022-11-03T08:53:34;16.88;;;4.35;;
53421;SDS011;39319;52.944;5.928;2022-11-03T08:56:00;16.38;;;3.88;;
53421;SDS011;39319;52.944;5.928;2022-11-03T08:58:26;14.45;;;3.67;;
53421;SDS011;39319;52.944;5.928;2022-11-03T09:00:51;14.10;;;3.75;;
53421;SDS011;39319;52.944;5.928;2022-11-03T09:03:17;16.45;;;4.10;;
53421;SDS011;39319;52.944;5.928;2022-11-03T09:05:43;14.88;;;4.25;;
53421;SDS011;39319;52.944;5.928;2022-11-03T09:08:09;16.17;;;4.00;;
53421;SDS011;39319;52.944;5.928;2022-11-03T09:10:35;14.85;;;3.85;;
53421;SDS011;39319;52.944;5.928;2022-11-03T09:13:01;16.08;;;3.95;;
53421;SDS011;39319;52.944;5.928;2022-11-03T09:15:26;14.90;;;3.90;;
53421;SDS011;39319;52.944;5.928;2022-11-03T09:17:53;18.17;;;3.90;;
53421;SDS011;39319;52.944;5.928;2022-11-03T09:20:19;15.13;;;3.83;;
53421;SDS011;39319;52.944;5.928;2022-11-03T09:22:45;18.55;;;4.30;;
53421;SDS011;39319;52.944;5.928;2022-11-03T09:25:10;15.87;;;4.40;;
53421;SDS011;39319;52.944;5.928;2022-11-03T09:27:36;13.40;;;3.03;;
53421;SDS011;39319;52.944;5.928;2022-11-03T09:30:03;17.63;;;4.25;;
53421;SDS011;39319;52.944;5.928;2022-11-03T09:32:30;15.52;;;4.13;;
53421;SDS011;39319;52.944;5.928;2022-11-03T09:34:56;18.33;;;4.55;;
53421;SDS011;39319;52.944;5.928;2022-11-03T09:37:22;17.02;;;3.92;;
53421;SDS011;39319;52.944;5.928;2022-11-03T09:39:48;20.03;;;4.10;;
53421;SDS011;39319;52.944;5.928;2022-11-03T09:42:14;16.48;;;3.83;;
53421;SDS011;39319;52.944;5.928;2022-11-03T09:44:41;15.60;;;4.13;;
53421;SDS011;39319;52.944;5.928;2022-11-03T09:47:08;14.27;;;3.70;;
53421;SDS011;39319;52.944;5.928;2022-11-03T09:49:39;16.00;;;4.00;;
53421;SDS011;39319;52.944;5.928;2022-11-03T09:52:05;20.42;;;4.00;;
53421;SDS011;39319;52.944;5.928;2022-11-03T09:54:36;15.83;;;4.10;;
53421;SDS011;39319;52.944;5.928;2022-11-03T09:57:10;16.08;;;4.38;;
53421;SDS011;39319;52.944;5.928;2022-11-03T09:59:37;15.00;;;3.83;;
53421;SDS011;39319;52.944;5.928;2022-11-03T10:02:05;15.55;;;3.67;;
53421;SDS011;39319;52.944;5.928;2022-11-03T10:04:45;14.55;;;3.92;;
53421;SDS011;39319;52.944;5.928;2022-11-03T10:07:11;15.13;;;4.00;;
53421;SDS011;39319;52.944;5.928;2022-11-03T10:09:37;17.13;;;4.47;;
53421;SDS011;39319;52.944;5.928;2022-11-03T10:12:09;17.50;;;4.03;;
53421;SDS011;39319;52.944;5.928;2022-11-03T10:14:36;17.65;;;4.53;;
53421;SDS011;39319;52.944;5.928;2022-11-03T10:17:01;19.73;;;4.70;;
53421;SDS011;39319;52.944;5.928;2022-11-03T10:19:27;14.30;;;3.67;;
53421;SDS011;39319;52.944;5.928;2022-11-03T10:21:53;17.07;;;4.10;;
53421;SDS011;39319;52.944;5.928;2022-11-03T10:24:21;15.55;;;3.70;;
53421;SDS011;39319;52.944;5.928;2022-11-03T10:26:48;15.63;;;3.67;;
53421;SDS011;39319;52.944;5.928;2022-11-03T10:31:48;20.33;;;4.00;;
53421;SDS011;39319;52.944;5.928;2022-11-03T10:34:25;15.95;;;3.67;;
53421;SDS011;39319;52.944;5.928;2022-11-03T10:39:36;15.38;;;3.60;;
53421;SDS011;39319;52.944;5.928;2022-11-03T10:42:02;14.80;;;3.97;;
53421;SDS011;39319;52.944;5.928;2022-11-03T10:44:29;15.18;;;4.13;;
53421;SDS011;39319;52.944;5.928;2022-11-03T10:46:58;14.57;;;3.85;;
53421;SDS011;39319;52.944;5.928;2022-11-03T10:49:35;18.40;;;4.15;;
53421;SDS011;39319;52.944;5.928;2022-11-03T10:52:20;15.80;;;3.90;;
53421;SDS011;39319;52.944;5.928;2022-11-03T10:54:48;17.15;;;4.90;;
53421;SDS011;39319;52.944;5.928;2022-11-03T10:57:15;19.20;;;4.32;;
53421;SDS011;39319;52.944;5.928;2022-11-03T10:59:42;14.70;;;3.90;;
53421;SDS011;39319;52.944;5.928;2022-11-03T11:04:45;15.80;;;4.00;;
53421;SDS011;39319;52.944;5.928;2022-11-03T11:07:25;16.27;;;4.73;;
53421;SDS011;39319;52.944;5.928;2022-11-03T11:10:16;14.82;;;4.10;;
53421;SDS011;39319;52.944;5.928;2022-11-03T11:20:52;15.02;;;3.75;;
53421;SDS011;39319;52.944;5.928;2022-11-03T11:28:38;13.50;;;3.60;;
53421;SDS011;39319;52.944;5.928;2022-11-03T11:33:46;14.55;;;3.60;;
53421;SDS011;39319;52.944;5.928;2022-11-03T11:36:20;16.05;;;4.43;;
53421;SDS011;39319;52.944;5.928;2022-11-03T11:41:15;14.90;;;3.70;;
53421;SDS011;39319;52.944;5.928;2022-11-03T11:43:41;14.90;;;4.22;;
53421;SDS011;39319;52.944;5.928;2022-11-03T11:51:20;15.90;;;3.77;;
53421;SDS011;39319;52.944;5.928;2022-11-03T11:53:46;12.15;;;3.20;;
53421;SDS011;39319;52.944;5.928;2022-11-03T11:56:16;13.88;;;3.75;;
53421;SDS011;39319;52.944;5.928;2022-11-03T12:01:32;12.35;;;3.85;;
53421;SDS011;39319;52.944;5.928;2022-11-03T12:04:05;13.68;;;3.92;;
53421;SDS011;39319;52.944;5.928;2022-11-03T12:06:39;16.27;;;3.80;;
53421;SDS011;39319;52.944;5.928;2022-11-03T12:16:55;14.25;;;3.20;;
53421;SDS011;39319;52.944;5.928;2022-11-03T12:19:35;13.75;;;3.55;;
53421;SDS011;39319;52.944;5.928;2022-11-03T12:22:06;15.00;;;3.45;;
53421;SDS011;39319;52.944;5.928;2022-11-03T12:24:44;13.75;;;3.88;;
53421;SDS011;39319;52.944;5.928;2022-11-03T12:29:49;12.48;;;3.10;;
53421;SDS011;39319;52.944;5.928;2022-11-03T12:32:15;13.50;;;3.30;;
53421;SDS011;39319;52.944;5.928;2022-11-03T12:34:41;12.73;;;2.85;;
53421;SDS011;39319;52.944;5.928;2022-11-03T12:37:07;12.60;;;2.90;;
53421;SDS011;39319;52.944;5.928;2022-11-03T12:39:33;13.18;;;3.50;;
53421;SDS011;39319;52.944;5.928;2022-11-03T12:41:59;13.00;;;2.88;;
53421;SDS011;39319;52.944;5.928;2022-11-03T12:44:25;12.88;;;3.60;;
53421;SDS011;39319;52.944;5.928;2022-11-03T12:46:51;14.05;;;3.53;;
53421;SDS011;39319;52.944;5.928;2022-11-03T12:49:17;11.85;;;3.50;;
53421;SDS011;39319;52.944;5.928;2022-11-03T12:51:43;11.98;;;3.38;;
53421;SDS011;39319;52.944;5.928;2022-11-03T12:54:09;12.85;;;3.25;;
53421;SDS011;39319;52.944;5.928;2022-11-03T12:56:34;10.98;;;2.88;;
53421;SDS011;39319;52.944;5.928;2022-11-03T12:59:00;13.32;;;3.40;;
53421;SDS011;39319;52.944;5.928;2022-11-03T13:01:26;11.45;;;3.05;;
53421;SDS011;39319;52.944;5.928;2022-11-03T13:03:52;11.88;;;3.05;;
53421;SDS011;39319;52.944;5.928;2022-11-03T13:06:18;12.80;;;3.13;;
53421;SDS011;39319;52.944;5.928;2022-11-03T13:08:44;11.57;;;3.33;;
53421;SDS011;39319;52.944;5.928;2022-11-03T13:11:10;12.32;;;3.33;;
53421;SDS011;39319;52.944;5.928;2022-11-03T13:13:55;11.88;;;3.30;;
53421;SDS011;39319;52.944;5.928;2022-11-03T13:16:21;11.18;;;3.15;;
53421;SDS011;39319;52.944;5.928;2022-11-03T13:18:46;10.23;;;2.80;;
53421;SDS011;39319;52.944;5.928;2022-11-03T13:21:12;11.00;;;3.03;;
53421;SDS011;39319;52.944;5.928;2022-11-03T13:23:38;10.48;;;2.75;;
53421;SDS011;39319;52.944;5.928;2022-11-03T13:26:07;9.48;;;2.70;;
53421;SDS011;39319;52.944;5.928;2022-11-03T13:28:33;12.70;;;2.90;;
53421;SDS011;39319;52.944;5.928;2022-11-03T13:30:59;12.82;;;2.72;;
53421;SDS011;39319;52.944;5.928;2022-11-03T13:33:24;11.00;;;2.90;;
53421;SDS011;39319;52.944;5.928;2022-11-03T13:35:51;11.37;;;3.07;;
53421;SDS011;39319;52.944;5.928;2022-11-03T13:38:17;11.65;;;3.00;;
53421;SDS011;39319;52.944;5.928;2022-11-03T13:40:43;13.00;;;2.55;;
53421;SDS011;39319;52.944;5.928;2022-11-03T13:43:09;12.15;;;3.15;;
53421;SDS011;39319;52.944;5.928;2022-11-03T13:45:35;10.93;;;2.88;;
53421;SDS011;39319;52.944;5.928;2022-11-03T13:48:01;11.13;;;3.10;;
53421;SDS011;39319;52.944;5.928;2022-11-03T13:50:27;12.45;;;3.15;;
53421;SDS011;39319;52.944;5.928;2022-11-03T13:52:52;12.77;;;3.10;;
53421;SDS011;39319;52.944;5.928;2022-11-03T13:55:18;10.20;;;3.13;;
53421;SDS011;39319;52.944;5.928;2022-11-03T13:57:44;11.47;;;3.10;;
53421;SDS011;39319;52.944;5.928;2022-11-03T14:00:12;14.00;;;3.60;;
53421;SDS011;39319;52.944;5.928;2022-11-03T14:02:39;10.87;;;3.57;;
53421;SDS011;39319;52.944;5.928;2022-11-03T14:05:05;12.30;;;4.05;;
53421;SDS011;39319;52.944;5.928;2022-11-03T14:07:31;12.82;;;4.07;;
53421;SDS011;39319;52.944;5.928;2022-11-03T14:09:58;13.25;;;5.15;;
53421;SDS011;39319;52.944;5.928;2022-11-03T14:12:24;14.93;;;5.18;;
53421;SDS011;39319;52.944;5.928;2022-11-03T14:14:59;17.58;;;4.75;;
53421;SDS011;39319;52.944;5.928;2022-11-03T14:17:30;13.00;;;5.07;;
53421;SDS011;39319;52.944;5.928;2022-11-03T14:19:56;12.98;;;4.60;;
53421;SDS011;39319;52.944;5.928;2022-11-03T14:22:22;13.13;;;4.80;;
53421;SDS011;39319;52.944;5.928;2022-11-03T14:24:49;13.10;;;4.45;;
53421;SDS011;39319;52.944;5.928;2022-11-03T14:27:15;13.07;;;4.40;;
53421;SDS011;39319;52.944;5.928;2022-11-03T14:29:42;14.00;;;4.60;;
53421;SDS011;39319;52.944;5.928;2022-11-03T14:32:09;15.77;;;5.43;;
53421;SDS011;39319;52.944;5.928;2022-11-03T14:34:36;14.30;;;4.88;;
53421;SDS011;39319;52.944;5.928;2022-11-03T14:37:03;14.80;;;4.68;;
53421;SDS011;39319;52.944;5.928;2022-11-03T14:39:29;12.60;;;4.55;;
53421;SDS011;39319;52.944;5.928;2022-11-03T14:41:55;11.77;;;3.83;;
53421;SDS011;39319;52.944;5.928;2022-11-03T14:44:31;13.13;;;3.53;;
53421;SDS011;39319;52.944;5.928;2022-11-03T14:47:02;10.80;;;3.15;;
53421;SDS011;39319;52.944;5.928;2022-11-03T14:49:30;8.82;;;3.05;;
53421;SDS011;39319;52.944;5.928;2022-11-03T14:51:56;12.23;;;3.00;;
53421;SDS011;39319;52.944;5.928;2022-11-03T14:54:31;10.85;;;3.10;;
53421;SDS011;39319;52.944;5.928;2022-11-03T14:56:57;11.10;;;3.03;;
53421;SDS011;39319;52.944;5.928;2022-11-03T14:59:23;11.43;;;3.20;;
53421;SDS011;39319;52.944;5.928;2022-11-03T15:01:49;10.52;;;2.92;;
53421;SDS011;39319;52.944;5.928;2022-11-03T15:04:16;12.52;;;3.38;;
53421;SDS011;39319;52.944;5.928;2022-11-03T15:06:42;12.02;;;3.15;;
53421;SDS011;39319;52.944;5.928;2022-11-03T15:09:08;10.25;;;2.88;;
53421;SDS011;39319;52.944;5.928;2022-11-03T15:11:35;11.60;;;3.45;;
53421;SDS011;39319;52.944;5.928;2022-11-03T15:14:01;11.17;;;3.17;;
53421;SDS011;39319;52.944;5.928;2022-11-03T15:16:27;11.60;;;3.10;;
53421;SDS011;39319;52.944;5.928;2022-11-03T15:18:53;9.77;;;2.72;;
53421;SDS011;39319;52.944;5.928;2022-11-03T15:21:19;12.15;;;2.95;;
53421;SDS011;39319;52.944;5.928;2022-11-03T15:23:44;14.05;;;3.00;;
53421;SDS011;39319;52.944;5.928;2022-11-03T15:26:10;8.20;;;2.53;;
53421;SDS011;39319;52.944;5.928;2022-11-03T15:28:36;10.00;;;2.92;;
53421;SDS011;39319;52.944;5.928;2022-11-03T15:31:03;10.77;;;2.78;;
53421;SDS011;39319;52.944;5.928;2022-11-03T15:33:29;9.45;;;2.90;;
53421;SDS011;39319;52.944;5.928;2022-11-03T15:35:56;10.93;;;3.22;;
53421;SDS011;39319;52.944;5.928;2022-11-03T15:38:22;15.40;;;3.10;;
53421;SDS011;39319;52.944;5.928;2022-11-03T15:40:48;10.52;;;2.88;;
53421;SDS011;39319;52.944;5.928;2022-11-03T15:43:14;9.05;;;2.72;;
53421;SDS011;39319;52.944;5.928;2022-11-03T15:45:40;11.02;;;2.60;;
53421;SDS011;39319;52.944;5.928;2022-11-03T15:48:06;10.35;;;2.72;;
53421;SDS011;39319;52.944;5.928;2022-11-03T15:50:31;10.25;;;3.17;;
53421;SDS011;39319;52.944;5.928;2022-11-03T15:52:57;10.00;;;3.20;;
53421;SDS011;39319;52.944;5.928;2022-11-03T15:55:23;8.37;;;2.90;;
53421;SDS011;39319;52.944;5.928;2022-11-03T15:57:48;11.60;;;2.80;;
53421;SDS011;39319;52.944;5.928;2022-11-03T16:00:14;9.13;;;2.63;;
53421;SDS011;39319;52.944;5.928;2022-11-03T16:02:40;11.43;;;3.05;;
53421;SDS011;39319;52.944;5.928;2022-11-03T16:05:06;10.60;;;2.88;;
53421;SDS011;39319;52.944;5.928;2022-11-03T16:07:34;10.23;;;2.90;;
53421;SDS011;39319;52.944;5.928;2022-11-03T16:10:00;10.80;;;3.10;;